Time;durP1;ratioP1;P1;durP2;ratioP2;P2;SDS_P1;SDS_P2;PMS_P1;PMS_P2;Temp;Humidity;BMP_temperature;BMP_pressure;BME280_temperature;BME280_humidity;BME280_pressure;Samples;Min_cycle;Max_cycle;Signal;HPM_P1;HPM_P2
2022/03/15 00:01:14;;;;;;;9.70;5.77;;;;;;;4.08;100.00;101322.22;5067828;28;20231;-63
2022/03/15 00:03:40;;;;;;;11.00;5.30;;;;;;;4.11;100.00;101324.75;5068979;28;20177;-65
2022/03/15 00:06:05;;;;;;;12.37;5.80;;;;;;;4.18;100.00;101316.19;5057279;28;20205;-64
2022/03/15 00:08:31;;;;;;;7.80;5.43;;;;;;;4.23;100.00;101321.25;5088212;28;20169;-63
2022/03/15 00:10:58;;;;;;;7.90;5.40;;;;;;;4.27;100.00;101317.81;5066215;28;20368;-63
2022/03/15 00:13:30;;;;;;;9.10;5.47;;;;;;;4.35;100.00;101317.75;5072514;28;20272;-63
2022/03/15 00:15:57;;;;;;;8.87;5.30;;;;;;;4.37;100.00;101316.03;5058562;28;20841;-63
2022/03/15 00:18:24;;;;;;;10.13;5.13;;;;;;;4.35;100.00;101312.66;5073360;28;20196;-64
2022/03/15 00:20:49;;;;;;;8.70;5.80;;;;;;;4.33;100.00;101320.31;5059135;28;20239;-64
2022/03/15 00:23:15;;;;;;;9.63;5.00;;;;;;;4.23;100.00;101311.06;5062720;28;20179;-64
2022/03/15 00:25:40;;;;;;;9.50;5.63;;;;;;;4.30;100.00;101324.59;5071972;28;20636;-64
2022/03/15 00:28:06;;;;;;;8.53;5.20;;;;;;;4.27;100.00;101320.38;5073473;28;20192;-63
2022/03/15 00:30:31;;;;;;;8.37;5.07;;;;;;;4.28;100.00;101327.16;5045020;28;20518;-64
2022/03/15 00:32:56;;;;;;;12.13;4.93;;;;;;;4.28;100.00;101327.16;5085675;28;20185;-63
2022/03/15 00:35:24;;;;;;;8.37;4.30;;;;;;;4.37;100.00;101321.13;5072072;28;20197;-64
2022/03/15 00:37:52;;;;;;;9.53;4.73;;;;;;;4.44;99.58;101316.81;5072091;28;20216;-65
2022/03/15 00:40:18;;;;;;;10.23;4.63;;;;;;;4.51;98.88;101298.91;5063569;28;20199;-64
2022/03/15 00:42:48;;;;;;;8.60;4.53;;;;;;;4.56;98.51;101308.22;5072797;28;20185;-64
2022/03/15 00:45:14;;;;;;;6.90;4.03;;;;;;;4.49;98.78;101304.88;5072271;28;20212;-63
2022/03/15 00:47:39;;;;;;;6.10;4.30;;;;;;;4.53;99.07;101306.53;5071687;28;20561;-63
2022/03/15 00:50:05;;;;;;;6.13;4.23;;;;;;;4.55;99.07;101301.41;5062408;28;20176;-65
2022/03/15 00:52:30;;;;;;;10.93;4.93;;;;;;;4.54;98.99;101303.13;5083385;28;20181;-65
2022/03/15 00:54:56;;;;;;;10.33;5.13;;;;;;;4.46;99.43;101305.75;5072415;28;20210;-65
2022/03/15 00:57:21;;;;;;;11.63;4.87;;;;;;;4.33;100.00;101297.38;5071417;28;20287;-65
2022/03/15 00:59:47;;;;;;;9.80;5.47;;;;;;;4.35;100.00;101295.69;5072247;28;20184;-64
2022/03/15 01:02:12;;;;;;;7.07;4.47;;;;;;;4.38;100.00;101306.69;5050836;28;20228;-64
2022/03/15 01:04:37;;;;;;;8.30;5.17;;;;;;;4.29;100.00;101298.28;5061585;28;20185;-62
2022/03/15 01:07:03;;;;;;;8.90;5.17;;;;;;;4.35;100.00;101292.25;5053305;28;20181;-64
2022/03/15 01:09:28;;;;;;;7.90;4.97;;;;;;;4.41;100.00;101282.00;5051396;28;20176;-64
2022/03/15 01:11:54;;;;;;;9.37;5.37;;;;;;;4.45;100.00;101287.94;5044995;28;20220;-65
2022/03/15 01:14:20;;;;;;;7.83;5.20;;;;;;;4.41;100.00;101279.47;5063182;28;20212;-64
2022/03/15 01:16:45;;;;;;;12.87;5.97;;;;;;;4.40;100.00;101279.50;5071701;28;20208;-65
2022/03/15 01:19:10;;;;;;;9.43;5.37;;;;;;;4.36;100.00;101281.22;5070740;28;20266;-63
2022/03/15 01:21:38;;;;;;;7.67;5.37;;;;;;;4.42;100.00;101280.31;5051548;28;20342;-64
2022/03/15 01:24:08;;;;;;;7.27;5.00;;;;;;;4.27;100.00;101284.69;5068440;28;20230;-64
2022/03/15 01:26:33;;;;;;;8.60;4.53;;;;;;;4.38;100.00;101278.66;5071857;28;20176;-64
2022/03/15 01:29:00;;;;;;;10.10;5.07;;;;;;;4.31;100.00;101275.34;5071109;28;20267;-64
2022/03/15 01:31:26;;;;;;;8.00;5.30;;;;;;;4.39;100.00;101268.47;5072326;28;20240;-64
2022/03/15 01:33:52;;;;;;;9.20;4.90;;;;;;;4.44;100.00;101268.41;5071151;28;20184;-61
2022/03/15 01:36:18;;;;;;;11.37;5.10;;;;;;;4.38;100.00;101271.88;5088351;28;20250;-64
2022/03/15 01:38:43;;;;;;;8.43;5.10;;;;;;;4.17;100.00;101265.28;5087821;28;20368;-63
2022/03/15 01:41:08;;;;;;;7.17;5.10;;;;;;;4.23;100.00;101272.00;5055071;28;20285;-62
2022/03/15 01:43:34;;;;;;;9.93;5.27;;;;;;;4.27;100.00;101279.59;5063100;28;20196;-64
2022/03/15 01:45:59;;;;;;;8.77;5.13;;;;;;;4.27;100.00;101268.59;5071122;28;20180;-63
2022/03/15 01:48:25;;;;;;;7.70;4.77;;;;;;;4.33;100.00;101276.16;5071923;28;20531;-63
2022/03/15 01:50:50;;;;;;;10.03;4.77;;;;;;;4.36;100.00;101271.03;5061718;28;20253;-63
2022/03/15 01:53:17;;;;;;;10.83;5.73;;;;;;;4.39;100.00;101267.59;5051154;28;20283;-66
2022/03/15 01:55:42;;;;;;;9.10;4.67;;;;;;;4.26;100.00;101262.63;5051172;28;20192;-65
2022/03/15 01:58:07;;;;;;;6.43;4.60;;;;;;;4.27;100.00;101256.69;5050491;28;20233;-65
2022/03/15 02:00:33;;;;;;;9.13;5.10;;;;;;;4.26;100.00;101249.06;5057377;28;20298;-63
2022/03/15 02:02:58;;;;;;;9.93;5.17;;;;;;;4.28;100.00;101250.75;5063094;28;20181;-63
2022/03/15 02:05:24;;;;;;;9.43;4.53;;;;;;;4.33;100.00;101265.97;5051836;28;20544;-63
2022/03/15 02:07:49;;;;;;;11.00;5.20;;;;;;;4.23;100.00;101267.78;5050433;28;20648;-63
2022/03/15 02:10:15;;;;;;;9.60;4.80;;;;;;;4.33;100.00;101264.28;5044489;28;20193;-63
2022/03/15 02:12:40;;;;;;;8.17;4.87;;;;;;;4.32;100.00;101264.28;5080813;28;20542;-63
2022/03/15 02:15:07;;;;;;;6.87;4.67;;;;;;;4.29;100.00;101257.53;5069639;28;20172;-62
2022/03/15 02:17:34;;;;;;;12.50;4.27;;;;;;;4.38;100.00;101250.63;5069524;28;20219;-65
2022/03/15 02:19:59;;;;;;;9.47;4.87;;;;;;;4.39;100.00;101250.63;5072262;28;20173;-62
2022/03/15 02:22:25;;;;;;;6.67;4.57;;;;;;;4.41;100.00;101254.00;5044446;28;20278;-62
2022/03/15 02:24:51;;;;;;;7.03;4.97;;;;;;;4.42;100.00;101253.13;5071869;28;20573;-62
2022/03/15 02:27:17;;;;;;;9.17;5.10;;;;;;;4.46;100.00;101243.75;5069929;28;20180;-63
2022/03/15 02:29:42;;;;;;;7.93;5.17;;;;;;;4.32;100.00;101243.91;5070264;28;20176;-65
2022/03/15 02:32:08;;;;;;;8.40;4.80;;;;;;;4.26;100.00;101244.81;5050225;28;20677;-65
2022/03/15 02:34:34;;;;;;;6.47;4.47;;;;;;;4.23;100.00;101249.94;5087536;28;20769;-64
2022/03/15 02:37:00;;;;;;;6.33;4.97;;;;;;;4.27;100.00;101241.41;5070257;28;20556;-65
2022/03/15 02:39:25;;;;;;;8.27;5.33;;;;;;;4.24;100.00;101243.97;5069641;28;20222;-63
2022/03/15 02:41:51;;;;;;;6.93;4.50;;;;;;;4.20;100.00;101227.03;5060494;28;20604;-63
2022/03/15 02:44:16;;;;;;;8.10;4.80;;;;;;;4.27;100.00;101226.13;5068523;28;20188;-63
2022/03/15 02:46:42;;;;;;;7.60;5.00;;;;;;;4.30;100.00;101227.78;5070195;28;20965;-66
2022/03/15 02:49:11;;;;;;;11.50;5.50;;;;;;;4.24;100.00;101231.22;5071618;28;20177;-63
2022/03/15 02:51:37;;;;;;;8.50;4.80;;;;;;;4.34;100.00;101232.84;5049792;28;20531;-64
2022/03/15 02:54:11;;;;;;;11.20;4.83;;;;;;;4.36;100.00;101230.28;5050042;28;20189;-63
2022/03/15 02:56:39;;;;;;;5.50;4.90;;;;;;;4.39;100.00;101220.06;5052062;28;20655;-64
2022/03/15 02:59:05;;;;;;;6.57;4.90;;;;;;;4.41;100.00;101225.97;5069760;28;20258;-62
2022/03/15 03:01:30;;;;;;;8.10;4.40;;;;;;;4.41;100.00;101223.41;5063463;28;20216;-63
2022/03/15 03:03:56;;;;;;;8.83;4.40;;;;;;;4.30;100.00;101222.69;5069313;28;20199;-63
2022/03/15 03:06:21;;;;;;;10.00;5.20;;;;;;;4.35;100.00;101221.81;5070174;28;20302;-63
2022/03/15 03:08:47;;;;;;;9.83;5.30;;;;;;;4.35;100.00;101220.94;5070923;28;20256;-63
2022/03/15 03:11:12;;;;;;;7.20;4.50;;;;;;;4.13;100.00;101220.31;5070707;28;20246;-65
2022/03/15 03:13:42;;;;;;;9.50;4.77;;;;;;;4.20;100.00;101220.25;5069633;28;20184;-65
2022/03/15 03:16:07;;;;;;;7.97;4.23;;;;;;;4.10;100.00;101217.81;5070106;28;20200;-64
2022/03/15 03:18:34;;;;;;;7.43;4.77;;;;;;;4.18;100.00;101213.47;5070953;28;20580;-65
2022/03/15 03:21:04;;;;;;;5.50;4.37;;;;;;;4.20;100.00;101211.75;5055277;28;20228;-65
2022/03/15 03:23:31;;;;;;;9.10;4.93;;;;;;;4.23;100.00;101221.94;5070444;28;20214;-64
2022/03/15 03:25:57;;;;;;;8.43;4.67;;;;;;;4.10;100.00;101216.09;5071591;28;20175;-63
2022/03/15 03:28:23;;;;;;;5.67;4.73;;;;;;;4.18;100.00;101219.41;5069250;28;20216;-64
2022/03/15 03:30:49;;;;;;;6.37;5.00;;;;;;;4.16;100.00;101202.47;5060269;28;20235;-63
2022/03/15 03:33:17;;;;;;;10.70;5.13;;;;;;;4.31;100.00;101204.00;5070767;28;20181;-64
2022/03/15 03:35:45;;;;;;;6.33;4.17;;;;;;;4.31;100.00;101201.47;5071241;28;20261;-64
2022/03/15 03:38:12;;;;;;;12.53;5.23;;;;;;;4.33;100.00;101205.69;5069110;28;20275;-63
2022/03/15 03:40:38;;;;;;;9.03;4.90;;;;;;;4.29;100.00;101206.59;5065368;28;20338;-64
2022/03/15 03:43:04;;;;;;;6.53;4.23;;;;;;;4.31;100.00;101196.38;5071103;28;20264;-64
2022/03/15 03:45:29;;;;;;;9.50;4.67;;;;;;;4.33;100.00;101192.94;5074522;28;20203;-64
2022/03/15 03:47:55;;;;;;;9.60;4.70;;;;;;;4.33;100.00;101187.84;5073209;28;20169;-62
2022/03/15 03:50:21;;;;;;;9.10;4.57;;;;;;;4.32;100.00;101198.06;5067346;28;20196;-63
2022/03/15 03:52:46;;;;;;;7.93;4.97;;;;;;;4.24;100.00;101204.94;5082239;28;20265;-64
2022/03/15 03:55:11;;;;;;;8.60;5.00;;;;;;;4.17;100.00;101212.63;5072632;28;20235;-64
2022/03/15 03:57:37;;;;;;;11.50;5.10;;;;;;;4.23;100.00;101210.88;5072467;28;20301;-62
2022/03/15 04:00:05;;;;;;;6.23;4.10;;;;;;;4.28;100.00;101207.44;5067809;28;20634;-64
2022/03/15 04:02:30;;;;;;;8.53;5.20;;;;;;;4.36;100.00;101215.81;5063226;28;20267;-63
2022/03/15 04:04:55;;;;;;;13.93;5.03;;;;;;;4.32;100.00;101201.44;5074615;28;20223;-63
2022/03/15 04:07:21;;;;;;;6.97;4.83;;;;;;;4.47;100.00;101197.03;5072462;28;20195;-66
2022/03/15 04:09:47;;;;;;;7.80;4.67;;;;;;;4.30;100.00;101187.03;5073093;28;20181;-65
2022/03/15 04:12:13;;;;;;;12.20;5.37;;;;;;;4.33;100.00;101192.09;5064440;28;20256;-63
2022/03/15 04:14:39;;;;;;;6.23;4.20;;;;;;;4.37;100.00;101196.31;5055432;28;20335;-64
2022/03/15 04:17:07;;;;;;;6.40;5.10;;;;;;;4.33;100.00;101207.38;5063705;28;20314;-64
2022/03/15 04:19:32;;;;;;;10.50;5.27;;;;;;;4.23;100.00;101208.31;5072728;28;20177;-64
2022/03/15 04:21:58;;;;;;;9.87;5.10;;;;;;;4.16;100.00;101205.84;5071726;28;20641;-64
2022/03/15 04:24:24;;;;;;;10.23;5.00;;;;;;;4.36;100.00;101197.97;5054508;28;20201;-63
2022/03/15 04:26:49;;;;;;;7.17;4.60;;;;;;;4.44;100.00;101203.00;5066187;28;20658;-62
2022/03/15 04:29:14;;;;;;;7.63;5.00;;;;;;;4.50;100.00;101199.53;5073228;28;20527;-63
2022/03/15 04:31:40;;;;;;;7.70;4.97;;;;;;;4.55;100.00;101195.22;5031637;28;20289;-63
2022/03/15 04:34:06;;;;;;;10.97;4.70;;;;;;;4.56;100.00;101188.44;5074024;28;20268;-64
2022/03/15 04:36:31;;;;;;;8.97;5.40;;;;;;;4.62;100.00;101189.19;5089373;28;20216;-63
2022/03/15 04:38:58;;;;;;;6.70;4.43;;;;;;;4.58;100.00;101184.19;5088841;28;20213;-63
2022/03/15 04:41:23;;;;;;;7.63;4.60;;;;;;;4.62;100.00;101189.19;5053980;28;20240;-66
2022/03/15 04:43:48;;;;;;;6.33;4.93;;;;;;;4.58;100.00;101196.91;5073347;28;20235;-65
2022/03/15 04:46:14;;;;;;;9.57;5.07;;;;;;;4.52;100.00;101191.00;5072584;28;20184;-63
2022/03/15 04:48:39;;;;;;;9.37;5.20;;;;;;;4.44;100.00;101175.00;5072014;28;20173;-65
2022/03/15 04:51:05;;;;;;;8.00;4.80;;;;;;;4.48;100.00;101183.44;5057042;28;20244;-63
2022/03/15 04:53:31;;;;;;;8.80;5.00;;;;;;;4.53;100.00;101181.69;5060415;28;20204;-66
2022/03/15 04:55:56;;;;;;;6.87;4.87;;;;;;;4.53;100.00;101179.13;5088508;28;20350;-64
2022/03/15 04:58:23;;;;;;;8.17;5.27;;;;;;;4.45;100.00;101173.28;5071852;28;20231;-64
2022/03/15 05:00:48;;;;;;;6.63;5.20;;;;;;;4.51;100.00;101170.66;5065049;28;20232;-65
2022/03/15 05:03:16;;;;;;;5.83;4.80;;;;;;;4.61;100.00;101169.66;5072174;28;20195;-63
2022/03/15 05:05:44;;;;;;;7.00;4.43;;;;;;;4.65;100.00;101167.94;5063103;28;20190;-63
2022/03/15 05:08:10;;;;;;;8.80;4.90;;;;;;;4.56;100.00;101166.34;5068390;28;20192;-64
2022/03/15 05:13:20;;;;;;;7.57;4.83;;;;;;;4.51;100.00;101166.41;5082131;28;20182;-64
2022/03/15 05:15:47;;;;;;;12.40;5.93;;;;;;;4.58;100.00;101162.06;5071839;28;20176;-64
2022/03/15 05:18:12;;;;;;;9.23;5.63;;;;;;;4.52;100.00;101165.53;5071354;28;20642;-63
2022/03/15 05:20:37;;;;;;;7.03;5.60;;;;;;;4.53;100.00;101167.22;5059779;28;20235;-62
2022/03/15 05:23:03;;;;;;;9.07;6.13;;;;;;;4.48;100.00;101170.69;5071945;28;20592;-66
2022/03/15 05:25:29;;;;;;;8.13;5.50;;;;;;;4.58;100.00;101164.63;5072980;28;20350;-63
2022/03/15 05:27:54;;;;;;;6.70;5.60;;;;;;;4.32;100.00;101162.41;5072446;28;20522;-62
2022/03/15 05:30:19;;;;;;;12.07;5.83;;;;;;;4.41;100.00;101167.38;5062465;28;20214;-64
2022/03/15 05:32:45;;;;;;;7.30;5.63;;;;;;;4.50;100.00;101159.63;5057242;28;20191;-64
2022/03/15 05:35:10;;;;;;;15.40;7.77;;;;;;;4.53;100.00;101158.75;5067339;28;20181;-64
2022/03/15 05:37:36;;;;;;;13.07;7.20;;;;;;;4.56;100.00;101162.97;5064226;28;20987;-62
2022/03/15 05:40:02;;;;;;;10.67;6.63;;;;;;;4.61;100.00;101166.28;5072569;28;20242;-62
2022/03/15 05:42:27;;;;;;;14.07;7.43;;;;;;;4.53;100.00;101161.28;5044845;28;20236;-62
2022/03/15 05:44:53;;;;;;;10.73;6.87;;;;;;;4.52;100.00;101155.34;5072601;28;20224;-65
2022/03/15 05:47:18;;;;;;;14.63;6.57;;;;;;;4.57;100.00;101155.28;5070312;28;20195;-63
2022/03/15 05:49:45;;;;;;;8.13;6.00;;;;;;;4.57;100.00;101162.09;5070527;28;20563;-64
2022/03/15 05:52:10;;;;;;;8.70;5.67;;;;;;;4.41;100.00;101147.00;5054351;28;20307;-62
2022/03/15 05:54:36;;;;;;;10.43;5.70;;;;;;;4.48;100.00;101143.50;5070973;28;20630;-63
2022/03/15 05:57:02;;;;;;;9.50;5.67;;;;;;;4.51;100.00;101140.94;5087750;28;20205;-66
2022/03/15 05:59:28;;;;;;;10.97;6.07;;;;;;;4.48;100.00;101142.69;5087184;28;20173;-64
2022/03/15 06:01:53;;;;;;;8.70;6.47;;;;;;;4.53;100.00;101136.63;5080451;28;20314;-64
2022/03/15 06:04:19;;;;;;;8.33;5.70;;;;;;;4.63;100.00;101149.28;5072844;28;20229;-64
2022/03/15 06:06:45;;;;;;;11.53;6.07;;;;;;;4.60;100.00;101142.53;5071667;28;20188;-63
2022/03/15 06:09:10;;;;;;;11.10;6.00;;;;;;;4.68;100.00;101132.22;5071537;28;20223;-63
2022/03/15 06:11:39;;;;;;;8.30;5.80;;;;;;;4.74;100.00;101139.78;5063592;28;20314;-62
2022/03/15 06:14:04;;;;;;;10.70;6.50;;;;;;;4.72;100.00;101126.22;5070430;28;20185;-62
2022/03/15 06:16:30;;;;;;;9.63;6.37;;;;;;;4.79;100.00;101126.97;5070409;28;20223;-61
2022/03/15 06:18:56;;;;;;;10.53;6.10;;;;;;;4.78;100.00;101121.03;5070027;28;20260;-64
2022/03/15 06:21:21;;;;;;;7.90;5.60;;;;;;;4.89;100.00;101127.66;5062834;28;20232;-63
2022/03/15 06:23:46;;;;;;;12.27;5.63;;;;;;;5.05;100.00;101131.69;5068471;28;20181;-63
2022/03/15 06:26:11;;;;;;;8.83;5.50;;;;;;;5.07;99.42;101126.56;5066834;28;20291;-64
2022/03/15 06:28:37;;;;;;;9.37;5.93;;;;;;;5.05;99.33;101125.75;5057174;28;20292;-63
2022/03/15 06:31:04;;;;;;;7.77;5.53;;;;;;;5.13;99.10;101119.66;5042762;28;20228;-63
2022/03/15 06:33:30;;;;;;;12.07;5.87;;;;;;;5.14;98.58;101117.97;5058494;28;20195;-64
2022/03/15 06:35:55;;;;;;;9.63;5.83;;;;;;;5.04;98.90;101127.47;5051778;28;20262;-63
2022/03/15 06:38:21;;;;;;;8.60;5.80;;;;;;;5.12;99.37;101118.00;5051405;28;20231;-64
2022/03/15 06:40:47;;;;;;;13.17;5.77;;;;;;;5.22;99.28;101110.19;5057320;28;20228;-65
2022/03/15 06:43:13;;;;;;;12.33;5.70;;;;;;;5.33;98.87;101115.94;5062651;28;20187;-63
2022/03/15 06:45:41;;;;;;;12.90;5.93;;;;;;;5.44;98.09;101108.13;5070270;28;20215;-64
2022/03/15 06:48:07;;;;;;;9.00;5.63;;;;;;;5.52;97.27;101107.97;5064295;28;20185;-64
2022/03/15 06:50:33;;;;;;;11.60;6.77;;;;;;;5.46;97.58;101107.22;5062959;28;20251;-63
2022/03/15 06:52:58;;;;;;;10.23;5.90;;;;;;;5.47;97.79;101108.06;5064943;28;20212;-64
2022/03/15 06:55:23;;;;;;;10.67;6.17;;;;;;;5.69;97.38;101113.63;5069898;28;20595;-64
2022/03/15 06:57:49;;;;;;;11.87;6.17;;;;;;;5.70;96.32;101106.81;5069450;28;20239;-64
2022/03/15 07:00:15;;;;;;;11.70;6.03;;;;;;;5.78;96.22;101112.63;5058261;28;20620;-62
2022/03/15 07:02:41;;;;;;;11.77;6.43;;;;;;;5.88;95.65;101105.63;5059774;28;20223;-63
2022/03/15 07:05:08;;;;;;;11.50;6.53;;;;;;;6.00;95.09;101112.25;5071403;28;20189;-64
2022/03/15 07:07:34;;;;;;;9.10;6.07;;;;;;;5.98;94.80;101113.13;5070507;28;20174;-66
2022/03/15 07:10:01;;;;;;;11.13;6.77;;;;;;;6.14;94.82;101110.28;5071043;28;20177;-65
2022/03/15 07:12:27;;;;;;;15.87;6.67;;;;;;;6.30;94.25;101110.78;5061656;28;20229;-64
2022/03/15 07:14:52;;;;;;;9.77;6.23;;;;;;;6.39;93.54;101118.28;5053772;28;20772;-62
2022/03/15 07:17:19;;;;;;;9.47;6.40;;;;;;;6.42;92.70;101118.22;5048608;28;20197;-65
2022/03/15 07:19:44;;;;;;;16.37;6.80;;;;;;;6.50;92.22;101112.09;5060350;28;20206;-64
2022/03/15 07:22:10;;;;;;;13.37;6.97;;;;;;;6.62;91.54;101101.59;5045441;28;20297;-63
2022/03/15 07:24:35;;;;;;;11.10;6.90;;;;;;;6.82;90.85;101100.31;5065768;28;20188;-63
2022/03/15 07:27:02;;;;;;;8.50;6.20;;;;;;;6.96;89.15;101098.31;5060412;28;20181;-63
2022/03/15 07:29:28;;;;;;;10.03;6.80;;;;;;;7.04;88.40;101086.16;5054216;28;20187;-62
2022/03/15 07:31:54;;;;;;;10.10;6.20;;;;;;;7.09;87.56;101086.03;5045727;28;20234;-68
2022/03/15 07:34:19;;;;;;;9.87;5.97;;;;;;;7.12;86.83;101080.88;5061765;28;20194;-62
2022/03/15 07:36:45;;;;;;;12.20;6.63;;;;;;;7.33;85.90;101081.19;5073254;28;20607;-65
2022/03/15 07:39:11;;;;;;;13.13;6.10;;;;;;;7.47;83.95;101078.28;5075706;28;20171;-70
2022/03/15 07:41:39;;;;;;;7.83;6.40;;;;;;;7.56;84.22;101080.63;5067076;28;20705;-70
2022/03/15 07:44:08;;;;;;;9.40;6.67;;;;;;;7.66;82.78;101074.34;5075146;28;20250;-63
2022/03/15 07:46:34;;;;;;;13.43;6.97;;;;;;;7.73;82.16;101075.06;5064215;28;20276;-65
2022/03/15 07:48:59;;;;;;;10.43;6.27;;;;;;;7.80;81.05;101074.00;5070013;28;20271;-63
2022/03/15 07:51:25;;;;;;;12.47;7.17;;;;;;;7.78;81.09;101067.22;5046170;28;20250;-63
2022/03/15 07:53:50;;;;;;;8.13;6.20;;;;;;;7.83;82.38;101068.78;5072769;28;20593;-63
2022/03/15 07:56:17;;;;;;;10.83;6.80;;;;;;;7.78;82.44;101064.66;5074686;28;20200;-62
2022/03/15 07:58:42;;;;;;;11.93;6.73;;;;;;;7.56;82.59;101049.88;5072651;28;20224;-65
2022/03/15 08:01:08;;;;;;;9.73;5.60;;;;;;;7.35;82.07;101047.00;5062194;28;20230;-64
2022/03/15 08:03:33;;;;;;;6.90;5.83;;;;;;;7.41;82.28;101051.97;5075741;28;20330;-63
2022/03/15 08:06:00;;;;;;;7.40;5.10;;;;;;;7.19;80.25;101049.09;5074456;28;20188;-63
2022/03/15 08:08:25;;;;;;;11.87;5.10;;;;;;;7.30;81.32;101042.91;5062439;28;20276;-64
2022/03/15 08:10:50;;;;;;;7.27;4.93;;;;;;;7.31;80.23;101031.78;5055120;28;20667;-64
2022/03/15 08:13:16;;;;;;;7.40;5.30;;;;;;;7.19;80.17;101044.00;5052720;28;20566;-66
2022/03/15 08:15:41;;;;;;;8.30;5.23;;;;;;;7.09;81.24;101042.56;5045074;28;20333;-63
2022/03/15 08:18:07;;;;;;;7.53;5.47;;;;;;;7.29;81.56;101042.03;5051982;28;20214;-64
2022/03/15 08:20:33;;;;;;;6.70;4.90;;;;;;;7.07;81.47;101040.03;5054557;28;20301;-63
2022/03/15 08:22:58;;;;;;;8.60;5.03;;;;;;;6.88;81.78;101029.41;5052704;28;20606;-63
2022/03/15 08:25:24;;;;;;;9.27;5.20;;;;;;;6.83;82.65;101018.44;5052603;28;20253;-65
2022/03/15 08:27:49;;;;;;;9.13;5.53;;;;;;;6.89;82.90;101025.16;5053644;28;20180;-64
2022/03/15 08:30:15;;;;;;;7.10;5.10;;;;;;;7.12;82.46;101024.59;5022601;28;20175;-64
2022/03/15 08:32:40;;;;;;;12.43;5.97;;;;;;;6.93;82.03;101031.84;5067568;28;20255;-65
2022/03/15 08:35:06;;;;;;;9.83;5.60;;;;;;;7.10;81.73;101031.44;5054074;28;20204;-64
2022/03/15 08:37:31;;;;;;;9.93;6.00;;;;;;;7.40;79.47;101019.56;5050935;28;20475;-61
2022/03/15 08:39:56;;;;;;;9.47;5.97;;;;;;;7.25;79.93;101013.13;5066874;28;20430;-63
2022/03/15 08:42:22;;;;;;;7.23;5.20;;;;;;;6.95;81.12;101023.25;5078686;28;20224;-62
2022/03/15 08:44:47;;;;;;;9.40;5.50;;;;;;;6.92;80.94;101017.38;5071899;28;20230;-64
2022/03/15 08:47:14;;;;;;;5.87;4.60;;;;;;;6.97;81.06;101032.63;5072206;28;20227;-63
2022/03/15 08:49:41;;;;;;;7.33;4.90;;;;;;;7.00;81.93;101030.84;5073711;28;20188;-63
2022/03/15 08:52:08;;;;;;;7.67;5.27;;;;;;;7.07;81.16;101026.38;5059102;28;20224;-63
2022/03/15 08:54:35;;;;;;;7.77;5.33;;;;;;;6.97;80.78;101014.72;5073496;28;20181;-63
2022/03/15 08:57:00;;;;;;;8.20;5.40;;;;;;;6.96;81.23;101016.44;5071809;28;20273;-63
2022/03/15 08:59:26;;;;;;;7.30;5.40;;;;;;;6.88;81.61;101018.34;5072598;28;20259;-63
2022/03/15 09:01:52;;;;;;;7.93;5.47;;;;;;;6.97;80.64;101017.28;5065208;28;20230;-63
2022/03/15 09:19:40;;;;;;;6.57;5.00;;;;;;;7.39;78.84;101001.69;5127942;27;1245642;-63
2022/03/15 09:22:07;;;;;;;7.77;5.37;;;;;;;7.41;78.30;100994.81;5130756;27;20186;-63
2022/03/15 09:24:34;;;;;;;7.77;5.87;;;;;;;7.46;78.57;100992.97;5126705;27;20174;-64
2022/03/15 09:27:00;;;;;;;8.57;5.13;;;;;;;7.58;78.12;100992.63;5150548;27;20181;-64
2022/03/15 09:29:25;;;;;;;7.03;4.83;;;;;;;7.63;76.23;100992.50;5131694;27;20665;-64
2022/03/15 09:31:50;;;;;;;9.60;5.13;;;;;;;7.88;76.25;100997.75;5150594;27;20703;-63
2022/03/15 09:34:17;;;;;;;5.17;4.60;;;;;;;7.62;76.29;100990.84;5131762;27;20212;-63
2022/03/15 09:36:44;;;;;;;8.73;5.17;;;;;;;7.76;77.37;100982.75;5131319;27;20196;-65
2022/03/15 09:39:09;;;;;;;8.63;5.23;;;;;;;8.12;75.97;100979.16;5150255;27;20212;-63
2022/03/15 09:41:39;;;;;;;6.87;5.33;;;;;;;8.15;74.94;100963.69;5150194;27;20164;-65
2022/03/15 09:44:10;;;;;;;6.50;5.30;;;;;;;8.14;75.15;100967.16;5150426;27;20166;-63
2022/03/15 09:46:51;;;;;;;7.07;5.63;;;;;;;7.99;75.32;100965.84;5130678;27;20178;-63
2022/03/15 09:49:18;;;;;;;6.73;5.03;;;;;;;7.84;76.39;100952.63;5131327;27;20178;-63
2022/03/15 09:51:45;;;;;;;7.47;5.50;;;;;;;7.68;76.22;100944.56;5131268;27;20235;-64
2022/03/15 09:54:12;;;;;;;7.00;6.30;;;;;;;7.57;77.18;100942.31;5130795;27;20178;-62
2022/03/15 09:56:40;;;;;;;9.50;6.33;;;;;;;7.61;77.13;100927.69;5130886;27;20265;-64
2022/03/15 09:59:14;;;;;;;8.00;6.17;;;;;;;7.61;77.77;100932.81;5131162;27;20278;-63
2022/03/15 10:01:40;;;;;;;11.87;6.03;;;;;;;7.63;77.12;100948.13;5149570;27;20231;-65
2022/03/15 10:04:05;;;;;;;9.77;5.87;;;;;;;7.74;78.51;100959.75;5131084;27;20203;-63
2022/03/15 10:06:31;;;;;;;6.53;5.70;;;;;;;7.39;79.61;100959.03;5149033;27;20174;-64
2022/03/15 10:08:56;;;;;;;8.67;6.07;;;;;;;7.27;81.44;100970.44;5149634;27;20183;-65
2022/03/15 10:11:23;;;;;;;8.87;5.90;;;;;;;7.35;82.13;100969.38;5149283;27;20524;-65
2022/03/15 10:13:50;;;;;;;10.63;6.57;;;;;;;7.16;83.44;100962.19;5119362;27;20679;-68
2022/03/15 10:16:15;;;;;;;10.30;5.90;;;;;;;7.10;85.46;100960.63;5130431;27;20178;-65
2022/03/15 10:18:55;;;;;;;11.73;6.77;;;;;;;6.68;88.25;100940.38;5149849;27;20330;-67
2022/03/15 10:21:24;;;;;;;8.63;6.27;;;;;;;6.66;91.51;100939.59;5130720;27;20636;-65
2022/03/15 10:23:54;;;;;;;13.30;7.40;;;;;;;6.55;92.08;100926.22;5130733;27;20174;-66
2022/03/15 10:26:26;;;;;;;14.50;7.57;;;;;;;6.39;93.85;100916.38;5130621;27;20225;-67
2022/03/15 10:28:54;;;;;;;13.53;6.90;;;;;;;6.34;96.23;100925.03;5129653;27;20236;-67
2022/03/15 10:31:24;;;;;;;10.00;7.10;;;;;;;6.29;98.79;100931.09;5135192;27;20174;-66
2022/03/15 10:33:52;;;;;;;11.33;7.77;;;;;;;6.49;100.00;100934.91;5135268;27;20696;-67
2022/03/15 10:36:21;;;;;;;11.53;7.63;;;;;;;6.60;100.00;100935.47;5116529;27;20220;-66
2022/03/15 10:38:52;;;;;;;12.37;7.53;;;;;;;6.66;100.00;100929.38;5116941;27;20305;-66
2022/03/15 10:41:19;;;;;;;17.73;8.00;;;;;;;6.70;100.00;100930.97;5135494;27;20178;-66
2022/03/15 10:43:50;;;;;;;11.53;7.43;;;;;;;6.77;100.00;100923.97;5116939;27;20185;-66
2022/03/15 10:46:22;;;;;;;14.03;7.60;;;;;;;6.75;100.00;100935.97;5134941;27;20221;-67
2022/03/15 10:48:53;;;;;;;10.43;7.83;;;;;;;6.66;100.00;100931.09;5117029;27;20177;-66
2022/03/15 10:51:19;;;;;;;12.80;8.07;;;;;;;6.72;100.00;100928.38;5116815;27;20588;-66
2022/03/15 10:53:47;;;;;;;13.83;8.10;;;;;;;6.59;100.00;100922.75;5116741;27;20194;-66
2022/03/15 10:56:21;;;;;;;22.63;15.30;;;;;;;6.53;100.00;100926.28;5134512;27;20177;-67
2022/03/15 10:58:51;;;;;;;12.73;9.05;;;;;;;6.62;100.00;100908.16;5134363;27;20425;-68
2022/03/15 11:01:22;;;;;;;12.63;8.50;;;;;;;6.31;100.00;100908.06;5134942;27;20174;-68
2022/03/15 11:03:54;;;;;;;12.60;8.67;;;;;;;6.11;100.00;100911.91;5116718;27;20205;-67
2022/03/15 11:06:38;;;;;;;13.03;9.37;;;;;;;6.15;100.00;100897.34;5115994;27;20184;-65
2022/03/15 11:09:24;;;;;;;14.07;10.00;;;;;;;5.98;100.00;100879.84;5134814;27;20167;-68
2022/03/15 11:11:54;;;;;;;11.27;8.67;;;;;;;5.94;100.00;100878.22;5107164;27;20658;-67
2022/03/15 11:14:39;;;;;;;14.20;8.97;;;;;;;5.93;100.00;100881.69;5116175;27;20195;-66
2022/03/15 11:17:08;;;;;;;14.53;9.43;;;;;;;6.08;100.00;100868.56;5116246;27;20223;-68
2022/03/15 11:19:38;;;;;;;11.77;9.03;;;;;;;5.95;100.00;100862.91;5134993;27;20319;-68
2022/03/15 11:22:05;;;;;;;11.47;9.20;;;;;;;5.82;100.00;100841.06;5102688;27;20227;-69
2022/03/15 11:24:36;;;;;;;16.80;10.50;;;;;;;5.81;100.00;100850.41;5134683;27;20182;-69
2022/03/15 11:27:05;;;;;;;14.40;10.87;;;;;;;5.82;100.00;100841.88;5115831;27;20177;-69
2022/03/15 11:29:32;;;;;;;16.57;10.93;;;;;;;6.02;100.00;100835.50;5115958;27;20642;-68
2022/03/15 11:31:59;;;;;;;12.10;10.40;;;;;;;5.95;100.00;100839.91;5115405;27;20178;-68
2022/03/15 11:34:25;;;;;;;18.63;9.63;;;;;;;5.70;100.00;100838.78;5116099;27;20182;-69
2022/03/15 11:36:52;;;;;;;12.77;10.23;;;;;;;5.65;100.00;100836.31;5115779;27;20174;-68
2022/03/15 11:39:19;;;;;;;16.17;10.87;;;;;;;5.71;100.00;100831.09;5116129;27;20230;-68